createdAt,value
2023-05-10T00:00:48.723Z,13.26
2023-05-10T00:03:15.383Z,13.23
2023-05-10T00:05:42.174Z,13.21
2023-05-10T00:08:08.949Z,13.27
2023-05-10T00:10:35.533Z,13.24
2023-05-10T00:13:02.248Z,13.24
2023-05-10T00:15:28.953Z,13.27
2023-05-10T00:17:56.909Z,13.17
2023-05-10T00:20:23.741Z,13.21
2023-05-10T00:22:50.473Z,13.20
2023-05-10T00:25:17.270Z,13.15
2023-05-10T00:27:43.877Z,13.22
2023-05-10T00:30:11.789Z,13.22
2023-05-10T00:32:38.454Z,13.23
2023-05-10T00:35:07.261Z,13.24
2023-05-10T00:37:33.908Z,13.19
2023-05-10T00:40:00.499Z,13.19
2023-05-10T00:42:27.413Z,13.18
2023-05-10T00:44:55.150Z,13.13
2023-05-10T00:47:22.043Z,13.19
2023-05-10T00:49:48.847Z,13.23
2023-05-10T00:52:16.900Z,13.16
2023-05-10T00:54:43.659Z,13.10
2023-05-10T00:57:11.110Z,13.15
2023-05-10T00:59:37.813Z,13.13
2023-05-10T01:02:04.608Z,13.11
2023-05-10T01:04:31.252Z,13.14
2023-05-10T01:06:57.859Z,13.11
2023-05-10T01:09:25.972Z,13.07
2023-05-10T01:11:53.140Z,13.11
2023-05-10T01:14:20.496Z,13.12
2023-05-10T01:16:49.362Z,13.04
2023-05-10T01:19:22.873Z,13.05
2023-05-10T01:21:57.129Z,13.08
2023-05-10T01:24:46.460Z,13.05
2023-05-10T01:27:26.269Z,13.03
2023-05-10T01:30:36.061Z,13.05
2023-05-10T01:33:12.060Z,13.02
2023-05-10T01:35:42.622Z,12.98
2023-05-10T01:38:17.206Z,13.02
2023-05-10T01:40:53.651Z,12.97
2023-05-10T01:43:26.685Z,12.96
2023-05-10T01:46:01.993Z,12.90
2023-05-10T01:48:31.891Z,12.90
2023-05-10T01:51:00.635Z,12.83
2023-05-10T01:53:28.597Z,12.87
2023-05-10T01:55:57.033Z,12.86
2023-05-10T01:58:28.205Z,12.88
2023-05-10T02:00:55.574Z,12.93
2023-05-10T02:03:24.974Z,12.96
2023-05-10T02:05:54.599Z,13.00
2023-05-10T02:08:23.485Z,13.06
2023-05-10T02:10:52.923Z,13.10
2023-05-10T02:13:20.448Z,13.12
2023-05-10T02:15:48.965Z,13.11
2023-05-10T02:18:16.658Z,13.14
2023-05-10T02:20:46.317Z,13.21
2023-05-10T02:23:15.146Z,13.21
2023-05-10T02:25:43.984Z,13.24
2023-05-10T02:28:12.681Z,13.29
2023-05-10T02:30:40.341Z,13.23
2023-05-10T02:33:07.438Z,13.24
2023-05-10T02:35:35.786Z,13.31
2023-05-10T02:38:03.225Z,13.33
2023-05-10T02:40:33.414Z,13.30
2023-05-10T02:43:03.315Z,13.32
2023-05-10T02:45:33.018Z,13.29
2023-05-10T02:48:00.398Z,13.33
2023-05-10T02:50:28.814Z,13.33
2023-05-10T02:53:00.560Z,13.29
2023-05-10T02:55:33.874Z,13.30
2023-05-10T02:58:02.507Z,13.30
2023-05-10T03:00:29.415Z,13.35
2023-05-10T03:02:56.442Z,13.31
2023-05-10T03:05:32.558Z,13.33
2023-05-10T03:08:02.859Z,13.33
2023-05-10T03:10:46.385Z,13.35
2023-05-10T03:13:34.198Z,13.32
2023-05-10T03:16:16.012Z,13.30
2023-05-10T03:18:52.140Z,13.33
2023-05-10T03:21:45.871Z,13.31
2023-05-10T03:24:16.633Z,13.30
2023-05-10T03:26:50.228Z,13.25
2023-05-10T03:29:19.157Z,13.29
2023-05-10T03:31:47.608Z,13.24
2023-05-10T03:34:34.695Z,13.24
2023-05-10T03:37:20.313Z,13.23
2023-05-10T03:39:51.266Z,13.20
2023-05-10T03:42:43.382Z,13.21
2023-05-10T03:45:39.279Z,13.22
2023-05-10T03:48:11.896Z,13.24
2023-05-10T03:51:06.371Z,13.19
2023-05-10T03:54:03.974Z,13.25
2023-05-10T03:56:31.142Z,13.17
2023-05-10T03:58:59.612Z,13.18
2023-05-10T04:01:26.404Z,13.16
2023-05-10T04:03:53.091Z,13.19
2023-05-10T04:06:19.842Z,13.19
2023-05-10T04:08:46.424Z,13.13
2023-05-10T04:11:13.411Z,13.21
2023-05-10T04:13:40.167Z,13.17
2023-05-10T04:16:08.305Z,13.21
2023-05-10T04:18:35.003Z,13.21
2023-05-10T04:21:01.699Z,13.16
2023-05-10T04:23:28.320Z,13.11
2023-05-10T04:26:00.433Z,13.13
2023-05-10T04:28:26.977Z,13.17
2023-05-10T04:30:53.627Z,13.18
2023-05-10T04:33:21.626Z,13.17
2023-05-10T04:35:48.169Z,13.19
2023-05-10T04:38:14.811Z,13.18
2023-05-10T04:40:41.470Z,13.20
2023-05-10T04:43:08.047Z,13.17
2023-05-10T04:45:37.885Z,13.19
2023-05-10T04:48:05.258Z,13.18
2023-05-10T04:50:33.163Z,13.21
2023-05-10T04:53:00.049Z,13.15
2023-05-10T04:55:26.671Z,13.18
2023-05-10T04:57:53.553Z,13.15
2023-05-10T05:00:20.618Z,13.17
2023-05-10T05:02:47.218Z,13.20
2023-05-10T05:05:13.896Z,13.19
2023-05-10T05:07:41.868Z,13.22
2023-05-10T05:10:09.722Z,13.21
2023-05-10T05:12:36.504Z,13.19
2023-05-10T05:15:03.514Z,13.23
2023-05-10T05:17:31.261Z,13.22
2023-05-10T05:20:00.807Z,13.28
2023-05-10T05:22:27.496Z,13.27
2023-05-10T05:24:55.518Z,13.25
2023-05-10T05:27:22.201Z,13.21
2023-05-10T05:29:48.848Z,13.23
2023-05-10T05:32:15.356Z,13.24
2023-05-10T05:34:41.998Z,13.24
2023-05-10T05:37:08.638Z,13.25
2023-05-10T05:39:36.923Z,13.27
2023-05-10T05:42:05.211Z,13.29
2023-05-10T05:44:31.825Z,13.31
2023-05-10T05:46:58.491Z,13.34
2023-05-10T05:49:25.127Z,13.39
2023-05-10T05:51:51.845Z,13.42
2023-05-10T05:54:18.485Z,13.40
2023-05-10T05:56:45.167Z,13.34
2023-05-10T05:59:13.090Z,13.35
2023-05-10T06:01:40.276Z,13.41
2023-05-10T06:04:07.158Z,13.48
2023-05-10T06:06:33.923Z,13.45
2023-05-10T06:09:00.544Z,13.41
2023-05-10T06:11:27.107Z,13.30
2023-05-10T06:13:53.761Z,13.37
2023-05-10T06:16:21.718Z,13.28
2023-05-10T06:18:48.360Z,13.33
2023-05-10T06:21:14.999Z,13.31
2023-05-10T06:23:41.658Z,13.30
2023-05-10T06:26:08.291Z,13.25
2023-05-10T06:28:34.984Z,13.29
2023-05-10T06:31:01.684Z,13.33
2023-05-10T06:33:29.639Z,13.35
2023-05-10T06:35:56.203Z,13.38
2023-05-10T06:38:22.777Z,13.49
2023-05-10T06:40:49.426Z,13.57
2023-05-10T06:43:16.178Z,13.54
2023-05-10T06:45:42.898Z,13.64
2023-05-10T06:48:09.643Z,13.77
2023-05-10T06:50:37.620Z,13.88
2023-05-10T06:53:04.171Z,13.97
2023-05-10T06:55:30.811Z,13.87
2023-05-10T06:57:57.450Z,13.87
2023-05-10T07:00:24.226Z,13.85
2023-05-10T07:02:50.929Z,13.80
2023-05-10T07:05:17.766Z,13.76
2023-05-10T07:07:45.991Z,13.83
2023-05-10T07:10:12.593Z,13.82
2023-05-10T07:12:39.294Z,13.79
2023-05-10T07:15:07.328Z,13.78
2023-05-10T07:17:34.031Z,13.79
2023-05-10T07:20:01.704Z,13.71
2023-05-10T07:22:28.365Z,13.76
2023-05-10T07:24:56.515Z,13.77
2023-05-10T07:27:23.185Z,13.75
2023-05-10T07:29:49.820Z,13.71
2023-05-10T07:32:16.425Z,13.82
2023-05-10T07:34:43.090Z,13.80
2023-05-10T07:37:09.825Z,13.85
2023-05-10T07:39:36.496Z,13.83
2023-05-10T07:42:04.619Z,13.85
2023-05-10T07:44:31.237Z,13.84
2023-05-10T07:46:57.810Z,13.83
2023-05-10T07:49:24.434Z,13.85
2023-05-10T07:51:51.077Z,13.88
2023-05-10T07:54:17.853Z,13.82
2023-05-10T07:56:44.476Z,13.80
2023-05-10T07:59:16.303Z,13.84
2023-05-10T08:01:43.049Z,13.81
2023-05-10T08:04:09.805Z,13.85
2023-05-10T08:06:36.570Z,13.86
2023-05-10T08:09:03.316Z,13.85
2023-05-10T08:11:29.892Z,13.84
2023-05-10T08:13:56.442Z,13.82
2023-05-10T08:16:24.502Z,13.87
2023-05-10T08:18:51.196Z,13.88
2023-05-10T08:21:17.858Z,13.89
2023-05-10T08:23:44.522Z,14.01
2023-05-10T08:26:11.240Z,14.02
2023-05-10T08:28:37.874Z,14.01
2023-05-10T08:31:05.387Z,14.08
2023-05-10T08:33:33.522Z,14.01
2023-05-10T08:36:00.160Z,13.96
2023-05-10T08:38:26.756Z,13.98
2023-05-10T08:40:55.795Z,13.97
2023-05-10T08:43:22.781Z,14.00
2023-05-10T08:45:51.555Z,14.02
2023-05-10T08:48:18.559Z,14.04
2023-05-10T08:50:48.286Z,14.03
2023-05-10T08:53:17.194Z,14.03
2023-05-10T08:55:46.799Z,14.00
2023-05-10T08:58:13.446Z,13.97
2023-05-10T09:00:40.850Z,14.00
2023-05-10T09:03:07.478Z,14.01
2023-05-10T09:05:34.146Z,14.00
2023-05-10T09:08:02.147Z,14.12
2023-05-10T09:10:30.693Z,14.08
2023-05-10T09:12:59.362Z,14.12
2023-05-10T09:15:27.217Z,14.12
2023-05-10T09:17:55.276Z,14.17
2023-05-10T09:20:21.918Z,14.12
2023-05-10T09:22:48.848Z,14.19
2023-05-10T09:25:17.985Z,14.21
2023-05-10T09:27:47.228Z,14.25
2023-05-10T09:30:17.383Z,14.33
2023-05-10T09:32:45.643Z,14.31
2023-05-10T09:35:14.115Z,14.29
2023-05-10T09:37:41.069Z,14.26
2023-05-10T09:40:08.989Z,14.23
2023-05-10T09:42:36.931Z,14.24
2023-05-10T09:45:04.831Z,14.22
2023-05-10T09:47:33.129Z,14.22
2023-05-10T09:49:59.738Z,14.32
2023-05-10T09:52:26.264Z,14.39
2023-05-10T09:54:54.281Z,14.40
2023-05-10T09:57:22.104Z,14.40
2023-05-10T09:59:50.528Z,14.42
2023-05-10T10:02:17.472Z,14.40
2023-05-10T10:04:44.053Z,14.46
2023-05-10T10:07:10.603Z,14.50
2023-05-10T10:09:37.216Z,14.51
2023-05-10T10:12:04.370Z,14.49
2023-05-10T10:14:31.135Z,14.44
2023-05-10T10:19:33.638Z,14.50
2023-05-10T10:22:01.244Z,14.53
2023-05-10T10:24:27.811Z,14.62
2023-05-10T10:27:00.893Z,14.83
2023-05-10T10:29:38.858Z,15.02
2023-05-10T10:32:20.400Z,15.22
2023-05-10T10:34:47.544Z,15.46
2023-05-10T10:37:14.441Z,15.83
2023-05-10T10:39:40.999Z,16.10
2023-05-10T10:42:07.660Z,16.26
2023-05-10T10:44:37.284Z,16.34
2023-05-10T10:47:06.379Z,16.30
2023-05-10T10:49:39.195Z,16.28
2023-05-10T10:52:23.683Z,16.19
2023-05-10T10:54:54.079Z,16.03
2023-05-10T10:57:21.289Z,15.85
2023-05-10T10:59:48.186Z,15.72
2023-05-10T11:02:43.672Z,15.74
2023-05-10T11:05:45.764Z,15.93
2023-05-10T11:08:19.626Z,16.35
2023-05-10T11:11:05.164Z,16.90
2023-05-10T11:13:35.109Z,16.92
2023-05-10T11:16:15.164Z,17.01
2023-05-10T11:18:52.654Z,16.72
2023-05-10T11:21:19.625Z,16.53
2023-05-10T11:23:51.920Z,16.37
2023-05-10T11:26:18.946Z,16.20
2023-05-10T11:28:46.753Z,16.12
2023-05-10T11:31:15.094Z,16.23
2023-05-10T11:33:45.017Z,16.37
2023-05-10T11:36:12.744Z,16.63
2023-05-10T11:38:39.278Z,17.09
2023-05-10T11:41:09.310Z,17.64
2023-05-10T11:43:36.021Z,17.71
2023-05-10T11:46:03.097Z,17.77
2023-05-10T11:48:30.796Z,17.91
2023-05-10T11:50:57.540Z,17.88
2023-05-10T11:53:25.876Z,17.85
2023-05-10T11:55:52.663Z,18.03
2023-05-10T11:58:20.744Z,18.19
2023-05-10T12:00:48.111Z,18.43
2023-05-10T12:03:14.761Z,18.71
2023-05-10T12:05:42.857Z,18.87
2023-05-10T12:08:13.865Z,18.85
2023-05-10T12:10:40.475Z,18.82
2023-05-10T12:13:12.100Z,18.69
2023-05-10T12:15:40.124Z,18.33
2023-05-10T12:18:08.812Z,18.17
2023-05-10T12:20:35.643Z,18.31
2023-05-10T12:23:03.281Z,18.51
2023-05-10T12:25:31.797Z,18.58
2023-05-10T12:28:00.407Z,18.90
2023-05-10T12:30:28.150Z,18.77
2023-05-10T12:33:01.260Z,19.45
2023-05-10T12:35:31.319Z,19.68
2023-05-10T12:37:57.962Z,19.35
2023-05-10T12:40:24.546Z,19.03
2023-05-10T12:42:51.662Z,19.11
2023-05-10T12:45:19.035Z,19.27
2023-05-10T12:47:45.587Z,19.14
2023-05-10T12:50:13.643Z,18.88
2023-05-10T12:52:40.203Z,18.43
2023-05-10T12:55:07.387Z,18.18
2023-05-10T12:57:33.934Z,18.04
2023-05-10T13:00:00.510Z,18.18
2023-05-10T13:02:27.177Z,18.41
2023-05-10T13:04:53.965Z,18.94
2023-05-10T13:07:21.942Z,19.93
2023-05-10T13:09:48.665Z,21.05
2023-05-10T13:12:15.233Z,21.12
2023-05-10T13:14:41.852Z,20.67
2023-05-10T13:17:08.532Z,19.98
2023-05-10T13:19:35.425Z,19.26
2023-05-10T13:22:01.978Z,18.84
2023-05-10T13:24:29.994Z,19.24
2023-05-10T13:26:56.642Z,19.54
2023-05-10T13:29:23.222Z,19.30
2023-05-10T13:31:49.939Z,19.00
2023-05-10T13:34:16.670Z,18.65
2023-05-10T13:36:43.267Z,18.40
2023-05-10T13:39:09.862Z,18.19
2023-05-10T13:41:37.838Z,18.02
2023-05-10T13:44:04.616Z,17.87
2023-05-10T13:46:31.266Z,17.70
2023-05-10T13:48:57.914Z,17.52
2023-05-10T13:51:24.520Z,17.36
2023-05-10T13:53:51.134Z,17.31
2023-05-10T13:56:17.679Z,17.25
2023-05-10T13:58:45.638Z,17.16
2023-05-10T14:01:12.250Z,17.21
2023-05-10T14:03:39.020Z,17.11
2023-05-10T14:06:05.981Z,17.11
2023-05-10T14:08:32.571Z,17.04
2023-05-10T14:10:59.114Z,16.92
2023-05-10T14:13:25.761Z,16.83
2023-05-10T14:15:54.630Z,16.65
2023-05-10T14:18:21.989Z,16.48
2023-05-10T14:20:48.562Z,16.30
2023-05-10T14:23:15.244Z,16.10
2023-05-10T14:25:42.016Z,15.82
2023-05-10T14:28:08.691Z,15.69
2023-05-10T14:30:35.311Z,15.62
2023-05-10T14:33:03.602Z,15.51
2023-05-10T14:35:30.569Z,15.54
2023-05-10T14:37:57.170Z,15.62
2023-05-10T14:40:23.703Z,15.66
2023-05-10T14:42:50.959Z,15.59
2023-05-10T14:45:18.011Z,15.63
2023-05-10T14:47:44.798Z,15.57
2023-05-10T14:50:21.511Z,15.57
2023-05-10T14:52:58.770Z,15.56
2023-05-10T14:55:25.477Z,15.54
2023-05-10T14:57:52.092Z,15.44
2023-05-10T15:00:19.411Z,15.38
2023-05-10T15:02:46.684Z,15.29
2023-05-10T15:05:15.953Z,15.18
2023-05-10T15:07:43.024Z,15.18
2023-05-10T15:10:10.279Z,15.10
2023-05-10T15:12:36.812Z,14.91
2023-05-10T15:15:03.721Z,14.84
2023-05-10T15:17:30.390Z,14.76
2023-05-10T15:19:56.992Z,14.61
2023-05-10T15:22:25.049Z,14.53
2023-05-10T15:24:51.585Z,14.47
2023-05-10T15:27:18.278Z,14.38
2023-05-10T15:29:44.883Z,14.31
2023-05-10T15:32:11.430Z,14.22
2023-05-10T15:34:38.018Z,14.16
2023-05-10T15:37:04.632Z,14.11
2023-05-10T15:39:32.572Z,14.06
2023-05-10T15:41:59.165Z,13.91
2023-05-10T15:44:25.894Z,13.85
2023-05-10T15:46:52.452Z,13.76
2023-05-10T15:49:19.081Z,13.66
2023-05-10T15:51:45.670Z,13.67
2023-05-10T15:54:12.222Z,13.64
2023-05-10T15:56:40.179Z,13.64
2023-05-10T15:59:06.750Z,13.58
2023-05-10T16:01:33.409Z,13.59
2023-05-10T16:04:00.404Z,13.58
2023-05-10T16:06:27.112Z,13.53
2023-05-10T16:08:54.702Z,13.47
2023-05-10T16:11:21.596Z,13.50
2023-05-10T16:13:49.649Z,13.54
2023-05-10T16:16:16.490Z,13.47
2023-05-10T16:18:43.250Z,13.51
2023-05-10T16:21:09.989Z,13.52
2023-05-10T16:23:36.703Z,13.46
2023-05-10T16:26:03.327Z,13.35
2023-05-10T16:28:30.105Z,13.41
2023-05-10T16:30:58.040Z,13.35
2023-05-10T16:33:24.969Z,13.39
2023-05-10T16:35:51.985Z,13.36
2023-05-10T16:38:18.729Z,13.39
2023-05-10T16:40:45.319Z,13.34
2023-05-10T16:43:11.881Z,13.36
2023-05-10T16:45:38.439Z,13.36
2023-05-10T16:48:06.875Z,13.40
2023-05-10T16:50:33.536Z,13.39
2023-05-10T16:53:00.126Z,13.38
2023-05-10T16:55:26.752Z,13.40
2023-05-10T16:57:53.395Z,13.33
2023-05-10T17:00:20.242Z,13.33
2023-05-10T17:02:47.126Z,13.33
2023-05-10T17:05:15.421Z,13.24
2023-05-10T17:07:42.215Z,13.19
2023-05-10T17:10:09.624Z,13.24
2023-05-10T17:12:36.391Z,13.23
2023-05-10T17:15:03.310Z,13.22
2023-05-10T17:17:30.053Z,13.21
2023-05-10T17:19:56.655Z,13.24
2023-05-10T17:22:24.892Z,13.28
2023-05-10T17:24:51.906Z,13.32
2023-05-10T17:27:18.444Z,13.29
2023-05-10T17:29:45.077Z,13.27
2023-05-10T17:32:11.701Z,13.33
2023-05-10T17:34:38.661Z,13.37
2023-05-10T17:37:05.315Z,13.43
2023-05-10T17:39:34.284Z,13.40
2023-05-10T17:42:00.847Z,13.37
2023-05-10T17:44:27.417Z,13.48
2023-05-10T17:46:54.028Z,13.44
2023-05-10T17:49:20.741Z,13.50
2023-05-10T17:51:47.526Z,13.44
2023-05-10T17:54:14.062Z,13.48
2023-05-10T17:56:42.229Z,13.53
2023-05-10T17:59:08.772Z,13.49
2023-05-10T18:01:35.487Z,13.43
2023-05-10T18:04:02.330Z,13.44
2023-05-10T18:06:29.340Z,13.40
2023-05-10T18:08:56.040Z,13.41
2023-05-10T18:11:24.884Z,13.41
2023-05-10T18:13:53.365Z,13.40
2023-05-10T18:16:20.284Z,13.38
2023-05-10T18:18:47.457Z,13.37
2023-05-10T18:21:14.249Z,13.36
2023-05-10T18:23:41.149Z,13.37
2023-05-10T18:26:08.083Z,13.35
2023-05-10T18:28:34.837Z,13.31
2023-05-10T18:31:03.094Z,13.33
2023-05-10T18:33:29.787Z,13.32
2023-05-10T18:35:58.467Z,13.35
2023-05-10T18:38:25.538Z,13.31
2023-05-10T18:40:53.945Z,13.32
2023-05-10T18:43:20.734Z,13.36
2023-05-10T18:45:47.576Z,13.29
2023-05-10T18:48:15.834Z,13.32
2023-05-10T18:50:42.697Z,13.27
2023-05-10T18:53:09.387Z,13.25
2023-05-10T18:55:36.105Z,13.31
2023-05-10T18:58:02.937Z,13.20
2023-05-10T19:00:32.020Z,13.25
2023-05-10T19:03:01.997Z,13.26
2023-05-10T19:05:30.531Z,13.24
2023-05-10T19:08:00.295Z,13.26
2023-05-10T19:10:31.106Z,13.27
2023-05-10T19:12:59.850Z,13.24
2023-05-10T19:15:29.253Z,13.23
2023-05-10T19:18:04.640Z,13.23
2023-05-10T19:20:35.053Z,13.21
2023-05-10T19:23:09.726Z,13.15
2023-05-10T19:25:37.326Z,13.14
2023-05-10T19:28:06.066Z,13.14
2023-05-10T19:30:35.383Z,13.16
2023-05-10T19:33:06.083Z,13.10
2023-05-10T19:35:36.218Z,13.07
2023-05-10T19:38:06.994Z,13.12
2023-05-10T19:40:33.830Z,13.02
2023-05-10T19:43:00.756Z,13.04
2023-05-10T19:45:29.799Z,13.02
2023-05-10T19:48:01.415Z,13.03
2023-05-10T19:50:32.286Z,13.00
2023-05-10T19:53:03.445Z,12.98
2023-05-10T19:55:31.475Z,12.98
2023-05-10T19:57:59.754Z,12.95
2023-05-10T20:00:27.815Z,12.92
2023-05-10T20:02:55.055Z,12.87
2023-05-10T20:05:22.141Z,12.84
2023-05-10T20:07:49.036Z,12.85
2023-05-10T20:10:21.655Z,12.78
2023-05-10T20:12:49.986Z,12.82
2023-05-10T20:15:17.382Z,12.76
2023-05-10T20:17:47.439Z,12.77
2023-05-10T20:20:16.307Z,12.77
2023-05-10T20:22:46.261Z,12.73
2023-05-10T20:25:14.020Z,12.68
2023-05-10T20:27:42.663Z,12.62
2023-05-10T20:30:11.907Z,12.63
2023-05-10T20:32:39.179Z,12.63
2023-05-10T20:35:06.911Z,12.57
2023-05-10T20:37:36.431Z,12.56
2023-05-10T20:40:03.456Z,12.59
2023-05-10T20:42:30.334Z,12.52
2023-05-10T20:44:58.739Z,12.48
2023-05-10T20:47:28.199Z,12.50
2023-05-10T20:50:09.169Z,12.41
2023-05-10T20:52:36.203Z,12.44
2023-05-10T20:55:03.004Z,12.48
2023-05-10T20:57:30.321Z,12.43
2023-05-10T20:59:59.487Z,12.47
2023-05-10T21:02:28.375Z,12.40
2023-05-10T21:04:57.758Z,12.46
2023-05-10T21:07:25.191Z,12.41
2023-05-10T21:09:52.309Z,12.39
2023-05-10T21:12:19.289Z,12.41
2023-05-10T21:14:46.206Z,12.38
2023-05-10T21:17:23.592Z,12.40
2023-05-10T21:19:58.669Z,12.31
2023-05-10T21:22:28.467Z,12.40
2023-05-10T21:24:55.392Z,12.36
2023-05-10T21:27:24.694Z,12.28
2023-05-10T21:29:51.530Z,12.38
2023-05-10T21:32:18.820Z,12.27
2023-05-10T21:34:47.129Z,12.32
2023-05-10T21:37:17.428Z,12.28
2023-05-10T21:39:44.202Z,12.34
2023-05-10T21:42:10.964Z,12.30
2023-05-10T21:44:40.689Z,12.25
2023-05-10T21:47:07.423Z,12.32
2023-05-10T21:49:34.262Z,12.24
2023-05-10T21:52:02.409Z,12.29
2023-05-10T21:54:29.387Z,12.31
2023-05-10T21:56:58.134Z,12.29
2023-05-10T21:59:25.005Z,12.20
2023-05-10T22:01:51.829Z,12.24
2023-05-10T22:04:18.532Z,12.22
2023-05-10T22:06:45.249Z,12.17
2023-05-10T22:09:13.361Z,12.18
2023-05-10T22:11:40.039Z,12.14
2023-05-10T22:14:06.822Z,12.11
2023-05-10T22:16:33.646Z,12.12
2023-05-10T22:19:00.603Z,12.09
2023-05-10T22:21:32.293Z,12.06
2023-05-10T22:24:02.264Z,12.09
2023-05-10T22:26:31.799Z,12.08
2023-05-10T22:29:00.041Z,12.09
2023-05-10T22:31:29.250Z,12.05
2023-05-10T22:33:56.023Z,12.07
2023-05-10T22:36:25.483Z,11.96
2023-05-10T22:38:52.177Z,11.92
2023-05-10T22:41:19.327Z,11.96
2023-05-10T22:43:49.812Z,11.96
2023-05-10T22:46:16.715Z,11.91
2023-05-10T22:48:43.461Z,11.98
2023-05-10T22:51:10.478Z,11.94
2023-05-10T22:53:37.465Z,11.96
2023-05-10T22:56:04.632Z,11.98
2023-05-10T22:58:31.538Z,12.03
2023-05-10T23:00:59.956Z,12.03
2023-05-10T23:03:26.973Z,12.05
2023-05-10T23:05:53.914Z,12.08
2023-05-10T23:08:20.669Z,12.05
2023-05-10T23:10:47.395Z,12.07
2023-05-10T23:13:14.217Z,12.03
2023-05-10T23:15:40.807Z,12.03
2023-05-10T23:18:12.027Z,11.99
2023-05-10T23:20:40.814Z,11.96
2023-05-10T23:23:07.559Z,11.97
2023-05-10T23:25:35.580Z,11.92
2023-05-10T23:28:05.062Z,11.92
2023-05-10T23:30:31.767Z,12.01
2023-05-10T23:33:00.185Z,11.95
2023-05-10T23:35:28.495Z,11.97
2023-05-10T23:37:55.284Z,12.00
2023-05-10T23:40:22.055Z,11.96
2023-05-10T23:42:48.813Z,11.93
2023-05-10T23:45:15.681Z,11.94
2023-05-10T23:47:42.356Z,11.97
2023-05-10T23:50:10.530Z,11.95
2023-05-10T23:52:41.019Z,11.93
2023-05-10T23:55:08.808Z,11.90
2023-05-10T23:57:35.510Z,11.89
